CW3847 La Orotava ES current weather conditions

sailwx.info

Wind from 336 at 1 knots gusting 2

Air temperature 25.6° C
Dewpoint 16.7° C

Last reported at 2014-Oct-24 09:46 UTC.
Time now 2014-Oct-24 10:19 UTC

Location: N 28°23' W 016°31'.
View on Google Maps.

See reports from other nearby stations

  
Tides and Currents Weather Stations Pressure Air Temp Water Temp Dewpoint Dewpoint Depression Visibility Wind Speed Wind Dir Waves Ship Positions
date/time (UTC)wind fromknots sea level pressurealtimeterstation pressurevisibilityair tempwater tempwave heightnotes
2014-Oct-24 09:46 336 1 gusting 2 25.6
2014-Oct-24 09:36 290 0 gusting 1 26.1
2014-Oct-24 09:26 097 26.1
2014-Oct-24 09:06 145 25.6
2014-Oct-24 08:56 145 25.0
2014-Oct-24 08:46 145 1 gusting 2 23.9
2014-Oct-24 08:16 178 2 gusting 3 22.8
2014-Oct-24 08:06 179 21.7
2014-Oct-24 07:46 228 22.8
2014-Oct-24 07:06 126 1 gusting 2 22.2
2014-Oct-24 06:56 158 0 gusting 2 22.2
2014-Oct-24 06:46 158 0 gusting 0 22.2
2014-Oct-24 06:36 157 2 gusting 2 22.8
2014-Oct-24 06:16 147 2 gusting 4 23.9
2014-Oct-24 06:06 175 2 gusting 3 24.4
2014-Oct-24 05:46 183 1 gusting 3 25.0
2014-Oct-24 05:26 202 2 gusting 2 25.0
2014-Oct-24 05:16 167 3 gusting 4 25.6
2014-Oct-24 05:06 190 1 gusting 2 26.1
2014-Oct-24 04:56 279 1 gusting 2 26.1
2014-Oct-24 04:36 170 4 gusting 5 25.6
2014-Oct-24 04:26 165 4 gusting 5 25.0
2014-Oct-24 04:06 157 3 gusting 5 24.4
2014-Oct-24 03:46 159 4 gusting 6 23.9
2014-Oct-24 03:36 178 4 gusting 4 23.9
2014-Oct-24 03:16 304 24.4
2014-Oct-24 02:06 180 2 gusting 2 24.4
2014-Oct-24 01:56 178 2 gusting 3 24.4
2014-Oct-24 01:46 166 3 gusting 3 24.4
2014-Oct-24 01:26 153 2 gusting 3 24.4
2014-Oct-24 01:16 187 0 gusting 1 25.0
2014-Oct-24 00:56 180 1 gusting 3 25.0
2014-Oct-24 00:46 159 1 gusting 3 25.6
2014-Oct-24 00:36 179 1 gusting 2 25.6
2014-Oct-24 00:16 193 2 gusting 3 25.6
2014-Oct-24 00:06 165 2 gusting 3 25.6
2014-Oct-23 23:56 179 2 gusting 3 25.6
2014-Oct-23 23:46 178 2 gusting 4 25.6
2014-Oct-23 23:36 159 2 gusting 4 25.6
2014-Oct-23 23:16 171 2 gusting 3 25.0
2014-Oct-23 23:06 158 2 gusting 3 25.0
2014-Oct-23 22:56 180 2 gusting 3 25.6
2014-Oct-23 22:36 174 1 gusting 2 25.6
2014-Oct-23 22:26 168 2 gusting 2 25.6
2014-Oct-23 21:56 184 2 gusting 3 25.0
2014-Oct-23 21:46 173 4 gusting 4 24.4
2014-Oct-23 21:16 258 0 gusting 1 25.6
2014-Oct-23 21:06 290 1 gusting 2 25.6
2014-Oct-23 20:46 168 1 gusting 3 25.6
2014-Oct-23 20:36 177 3 gusting 5 25.0
2014-Oct-23 20:16 164 1 gusting 2 25.0
2014-Oct-23 20:06 190 1 gusting 1 25.6
2014-Oct-23 19:46 168 3 gusting 4 25.6
2014-Oct-23 19:16 163 4 gusting 4 25.6
2014-Oct-23 19:06 182 0 gusting 1 25.6
2014-Oct-23 18:56 167 0 gusting 2 25.6
2014-Oct-23 18:46 261 0 gusting 0 26.1
2014-Oct-23 18:16 178 1 gusting 2 26.7
2014-Oct-23 17:56 257 0 gusting 1 26.1
2014-Oct-23 17:46 304 1 gusting 1 25.6
2014-Oct-23 17:36 304 0 gusting 0 25.6
2014-Oct-23 17:16 304 1 gusting 1 25.6
2014-Oct-23 16:56 304 0 gusting 2 26.7
2014-Oct-23 16:26 306 1 gusting 2 27.2
2014-Oct-23 16:06 299 1 gusting 2 27.8
2014-Oct-23 15:46 005 0 gusting 2 27.8
2014-Oct-23 15:36 286 2 gusting 2 27.8
2014-Oct-23 15:26 341 2 gusting 2 28.3
2014-Oct-23 15:06 325 2 gusting 2 28.3
2014-Oct-23 14:56 309 1 gusting 1 27.8
2014-Oct-23 14:46 329 1 gusting 2 27.8
2014-Oct-23 14:26 296 2 gusting 3 28.9
2014-Oct-23 14:16 342 1 gusting 2 28.3
2014-Oct-23 14:06 340 2 gusting 2 28.3
2014-Oct-23 13:56 307 1 gusting 2 28.9
2014-Oct-23 13:26 324 2 gusting 2 28.9
2014-Oct-23 13:06 331 1 gusting 2 29.4
2014-Oct-23 12:56 323 2 gusting 2 29.4
2014-Oct-23 12:46 313 1 gusting 2 28.9
2014-Oct-23 12:26 309 0 gusting 1 28.9
2014-Oct-23 12:16 360 2 gusting 2 28.9
2014-Oct-23 12:06 307 2 gusting 2 29.4
2014-Oct-23 11:56 325 2 gusting 2 29.4
2014-Oct-23 11:46 327 1 gusting 2 29.4
2014-Oct-23 11:36 309 1 gusting 1 29.4
2014-Oct-23 10:46 277 0 gusting 1 29.4
2014-Oct-23 10:36 306 0 gusting 0 29.4
2014-Oct-23 10:26 307 0 gusting 1 29.4
2014-Oct-23 10:16 298 0 gusting 0 30.0
2014-Oct-23 09:56 127 1 gusting 1 28.9
2014-Oct-23 09:36 084 1 gusting 1 26.7
2014-Oct-23 09:26 351 2 gusting 2 27.2
2014-Oct-23 09:16 289 26.7
2014-Oct-23 09:06 196 1 gusting 1 26.7
2014-Oct-23 08:56 300 0 gusting 0 26.1
2014-Oct-23 08:46 162 2 gusting 3 25.0
2014-Oct-23 08:36 180 2 gusting 3 23.3
2014-Oct-23 08:26 266 0 gusting 2 22.8
2014-Oct-23 07:56 165 3 gusting 6 25.6
2014-Oct-23 07:46 173 6 gusting 7 25.0
2014-Oct-23 07:36 162 5 gusting 5 25.0
2014-Oct-23 07:26 150 3 gusting 5 25.0
2014-Oct-23 06:56 186 4 gusting 5 24.4
2014-Oct-23 06:36 163 3 gusting 3 24.4
2014-Oct-23 06:26 159 4 gusting 6 24.4
2014-Oct-23 06:16 182 3 gusting 6 24.4
2014-Oct-23 05:56 157 4 gusting 6 24.4
2014-Oct-23 05:46 173 2 gusting 5 24.4
2014-Oct-23 05:36 166 3 gusting 3 24.4
2014-Oct-23 05:26 159 4 gusting 5 23.9
2014-Oct-23 04:56 161 2 gusting 4 23.9
2014-Oct-23 04:36 151 2 gusting 4 23.9
2014-Oct-23 04:16 171 3 gusting 4 23.9
2014-Oct-23 04:06 170 4 gusting 5 23.9
2014-Oct-23 03:46 161 3 gusting 3 23.3
2014-Oct-23 03:36 173 4 gusting 4 23.3
2014-Oct-23 03:26 170 23.3
2014-Oct-23 02:46 153 1 gusting 2 22.2
2014-Oct-23 02:26 015 1 gusting 2 22.2
2014-Oct-23 02:16 177 21.7
2014-Oct-23 02:06 155 2 gusting 2 21.1
2014-Oct-23 01:56 346 21.7
2014-Oct-23 01:36 261 0 gusting 0 22.2
2014-Oct-23 01:26 304 22.8
2014-Oct-23 01:16 172 2 gusting 2 22.8
2014-Oct-23 00:56 172 1 gusting 2 23.3
2014-Oct-23 00:46 172 1 gusting 1 23.9
2014-Oct-23 00:36 173 0 gusting 1 23.9
2014-Oct-23 00:26 220 1 gusting 1 24.4
2014-Oct-23 00:06 165 0 gusting 1 23.9
2014-Oct-22 23:56 148 0 gusting 0 23.3
2014-Oct-22 23:46 194 2 gusting 3 22.2
2014-Oct-22 23:36 250 0 gusting 0 22.2
2014-Oct-22 23:26 250 22.2
2014-Oct-22 23:16 249 1 gusting 2 22.2
2014-Oct-22 22:46 242 22.8
2014-Oct-22 22:36 242 0 gusting 0 22.8
2014-Oct-22 22:26 240 0 gusting 1 23.3
2014-Oct-22 22:16 173 0 gusting 2 22.8
2014-Oct-22 22:06 114 0 gusting 2 22.8
2014-Oct-22 21:56 144 1 gusting 2 22.2
2014-Oct-22 21:46 360 0 gusting 0 22.2
2014-Oct-22 21:36 157 2 gusting 2 22.8
2014-Oct-22 21:16 181 0 gusting 1 22.8
2014-Oct-22 20:57 133 0 gusting 1 22.2
2014-Oct-22 20:46 211 1 gusting 2 22.8
2014-Oct-22 20:36 211 1 gusting 1 23.3
2014-Oct-22 20:16 311 2 gusting 2 25.6
2014-Oct-22 20:06 173 2 gusting 3 25.6
2014-Oct-22 19:56 167 25.0
2014-Oct-22 19:46 200 2 gusting 2 25.0
2014-Oct-22 19:36 176 2 gusting 2 25.0
2014-Oct-22 19:26 197 1 gusting 2 25.0
2014-Oct-22 19:16 159 1 gusting 2 24.4
2014-Oct-22 18:56 267 24.4
2014-Oct-22 18:46 254 24.4
2014-Oct-22 18:36 299 1 gusting 2 25.0
2014-Oct-22 18:26 319 25.6
2014-Oct-22 18:06 321 26.7
2014-Oct-22 17:56 161 0 gusting 1 27.2
2014-Oct-22 16:56 350 2 gusting 3 27.8
2014-Oct-22 16:46 333 2 gusting 3 28.3
2014-Oct-22 16:26 312 0 gusting 1 27.8
2014-Oct-22 16:16 089 27.2
2014-Oct-22 16:06 082 1 gusting 2 27.8
2014-Oct-22 15:57 360 1 gusting 2 28.3
2014-Oct-22 15:46 005 0 gusting 1 28.3
2014-Oct-22 15:16 103 0 gusting 0 27.2
2014-Oct-22 15:06 103 1 gusting 1 27.2
2014-Oct-22 14:46 105 4 gusting 4 27.2
2014-Oct-22 14:36 053 1 gusting 3 27.8
2014-Oct-22 14:26 040 2 gusting 3 28.3
2014-Oct-22 14:16 042 3 gusting 3 28.9
2014-Oct-22 14:06 065 2 gusting 5 30.6
2014-Oct-22 13:56 086 2 gusting 2 31.1
2014-Oct-22 13:36 086 0 gusting 1 31.1
2014-Oct-22 13:16 095 2 gusting 4 32.2
2014-Oct-22 12:56 078 5 gusting 6 33.9
2014-Oct-22 12:46 085 6 gusting 9 34.4
2014-Oct-22 12:36 153 9 gusting 11 33.9
2014-Oct-22 12:16 121 5 gusting 13 33.9
2014-Oct-22 12:06 093 8 gusting 11 33.9
2014-Oct-22 11:56 163 5 gusting 8 33.9
2014-Oct-22 11:46 135 6 gusting 6 33.3
2014-Oct-22 11:36 132 5 gusting 8 33.3
2014-Oct-22 11:26 152 2 gusting 4 32.8
2014-Oct-22 11:16 132 8 gusting 8 32.2
2014-Oct-22 11:06 183 6 gusting 8 32.2
2014-Oct-22 10:56 084 8 gusting 14 31.7
2014-Oct-22 10:46 161 11 gusting 16 31.1
2014-Oct-22 10:26 180 11 gusting 16 30.6
2014-Oct-22 10:16 205 6 gusting 17 30.6
2014-Oct-22 10:06 168 13 gusting 19 30.6